sensor_id;sensor_type;location;lat;lon;timestamp;pressure;altitude;pressure_sealevel;temperature;humidity
29569;BME280;16501;51.462;14.346;2023-04-01T00:00:28;98321.38;;;8.18;100.00
29569;BME280;16501;51.462;14.346;2023-04-01T00:02:53;98330.03;;;8.26;100.00
29569;BME280;16501;51.462;14.346;2023-04-01T00:05:18;98307.16;;;8.10;100.00
29569;BME280;16501;51.462;14.346;2023-04-01T00:07:44;98322.41;;;8.21;100.00
29569;BME280;16501;51.462;14.346;2023-04-01T00:10:11;98297.97;;;7.93;100.00
29569;BME280;16501;51.462;14.346;2023-04-01T00:12:38;98337.94;;;8.33;100.00
29569;BME280;16501;51.462;14.346;2023-04-01T00:15:05;98341.22;;;8.31;100.00
29569;BME280;16501;51.462;14.346;2023-04-01T00:17:30;98319.59;;;8.09;100.00
29569;BME280;16501;51.462;14.346;2023-04-01T00:19:56;98344.00;;;8.26;100.00
29569;BME280;16501;51.462;14.346;2023-04-01T00:22:22;98338.38;;;8.20;100.00
29569;BME280;16501;51.462;14.346;2023-04-01T00:24:48;98313.75;;;8.07;100.00
29569;BME280;16501;51.462;14.346;2023-04-01T00:27:16;98305.88;;;8.11;100.00
29569;BME280;16501;51.462;14.346;2023-04-01T00:29:43;98330.31;;;8.28;100.00
29569;BME280;16501;51.462;14.346;2023-04-01T00:32:09;98317.84;;;8.18;100.00
29569;BME280;16501;51.462;14.346;2023-04-01T00:34:34;98302.31;;;8.05;100.00
29569;BME280;16501;51.462;14.346;2023-04-01T00:36:59;98316.03;;;8.15;100.00
29569;BME280;16501;51.462;14.346;2023-04-01T00:39:27;98321.63;;;8.20;100.00
29569;BME280;16501;51.462;14.346;2023-04-01T00:41:53;98308.16;;;8.07;100.00
29569;BME280;16501;51.462;14.346;2023-04-01T00:44:21;98324.97;;;8.24;100.00
29569;BME280;16501;51.462;14.346;2023-04-01T00:46:47;98314.75;;;8.04;100.00
29569;BME280;16501;51.462;14.346;2023-04-01T00:49:13;98288.81;;;7.87;100.00
29569;BME280;16501;51.462;14.346;2023-04-01T00:51:41;98340.16;;;8.18;100.00
29569;BME280;16501;51.462;14.346;2023-04-01T00:54:08;98299.28;;;7.98;100.00
29569;BME280;16501;51.462;14.346;2023-04-01T00:56:36;98340.66;;;8.16;100.00
29569;BME280;16501;51.462;14.346;2023-04-01T00:59:08;98327.69;;;8.07;100.00
29569;BME280;16501;51.462;14.346;2023-04-01T01:01:36;98345.75;;;8.18;100.00
29569;BME280;16501;51.462;14.346;2023-04-01T01:04:01;98335.09;;;8.16;100.00
29569;BME280;16501;51.462;14.346;2023-04-01T01:11:50;98327.22;;;8.15;100.00
29569;BME280;16501;51.462;14.346;2023-04-01T01:14:25;98330.25;;;8.11;100.00
29569;BME280;16501;51.462;14.346;2023-04-01T01:17:35;98321.38;;;8.07;100.00
29569;BME280;16501;51.462;14.346;2023-04-01T01:20:14;98325.66;;;8.08;100.00
29569;BME280;16501;51.462;14.346;2023-04-01T01:23:12;98328.19;;;8.06;100.00
29569;BME280;16501;51.462;14.346;2023-04-01T01:32:01;98308.16;;;8.02;100.00
29569;BME280;16501;51.462;14.346;2023-04-01T01:37:03;98295.94;;;7.82;100.00
29569;BME280;16501;51.462;14.346;2023-04-01T01:39:33;98326.19;;;8.06;100.00
29569;BME280;16501;51.462;14.346;2023-04-01T01:42:04;98291.09;;;7.88;100.00
29569;BME280;16501;51.462;14.346;2023-04-01T01:44:32;98283.22;;;7.76;100.00
29569;BME280;16501;51.462;14.346;2023-04-01T01:47:00;98311.94;;;7.93;100.00
29569;BME280;16501;51.462;14.346;2023-04-01T01:49:26;98337.34;;;8.06;100.00
29569;BME280;16501;51.462;14.346;2023-04-01T01:51:52;98306.34;;;7.93;100.00
29569;BME280;16501;51.462;14.346;2023-04-01T01:54:18;98323.63;;;8.03;100.00
29569;BME280;16501;51.462;14.346;2023-04-01T01:57:07;98320.56;;;8.01;100.00
29569;BME280;16501;51.462;14.346;2023-04-01T01:59:35;98319.31;;;7.96;100.00
29569;BME280;16501;51.462;14.346;2023-04-01T02:02:02;98314.97;;;7.95;100.00
29569;BME280;16501;51.462;14.346;2023-04-01T02:04:34;98312.94;;;7.90;100.00
29569;BME280;16501;51.462;14.346;2023-04-01T02:07:07;98322.84;;;7.91;100.00
29569;BME280;16501;51.462;14.346;2023-04-01T02:09:34;98317.78;;;7.95;100.00
29569;BME280;16501;51.462;14.346;2023-04-01T02:12:04;98342.69;;;8.10;100.00
29569;BME280;16501;51.462;14.346;2023-04-01T02:14:39;98333.78;;;8.06;100.00
29569;BME280;16501;51.462;14.346;2023-04-01T02:17:09;98338.38;;;8.09;100.00
29569;BME280;16501;51.462;14.346;2023-04-01T02:19:39;98341.41;;;8.11;100.00
29569;BME280;16501;51.462;14.346;2023-04-01T02:22:09;98338.63;;;8.05;100.00
29569;BME280;16501;51.462;14.346;2023-04-01T02:24:37;98296.69;;;7.83;100.00
29569;BME280;16501;51.462;14.346;2023-04-01T02:27:04;98314.47;;;7.91;100.00
29569;BME280;16501;51.462;14.346;2023-04-01T02:29:30;98309.09;;;7.82;100.00
29569;BME280;16501;51.462;14.346;2023-04-01T02:31:55;98309.66;;;7.91;100.00
29569;BME280;16501;51.462;14.346;2023-04-01T02:34:22;98339.63;;;8.08;100.00
29569;BME280;16501;51.462;14.346;2023-04-01T02:36:49;98332.53;;;8.07;100.00
29569;BME280;16501;51.462;14.346;2023-04-01T02:39:15;98321.81;;;7.88;100.00
29569;BME280;16501;51.462;14.346;2023-04-01T02:41:42;98332.94;;;7.83;100.00
29569;BME280;16501;51.462;14.346;2023-04-01T02:44:09;98342.94;;;8.06;100.00
29569;BME280;16501;51.462;14.346;2023-04-01T02:46:35;98334.53;;;8.01;100.00
29569;BME280;16501;51.462;14.346;2023-04-01T02:49:00;98326.88;;;7.84;100.00
29569;BME280;16501;51.462;14.346;2023-04-01T02:51:26;98306.03;;;7.74;100.00
29569;BME280;16501;51.462;14.346;2023-04-01T02:53:51;98336.56;;;7.95;100.00
29569;BME280;16501;51.462;14.346;2023-04-01T02:56:17;98346.19;;;7.93;100.00
29569;BME280;16501;51.462;14.346;2023-04-01T02:58:42;98378.97;;;8.10;100.00
29569;BME280;16501;51.462;14.346;2023-04-01T03:01:07;98345.69;;;7.95;100.00
29569;BME280;16501;51.462;14.346;2023-04-01T03:03:33;98347.16;;;7.85;100.00
29569;BME280;16501;51.462;14.346;2023-04-01T03:06:04;98363.72;;;8.05;100.00
29569;BME280;16501;51.462;14.346;2023-04-01T03:08:30;98348.97;;;7.93;100.00
29569;BME280;16501;51.462;14.346;2023-04-01T03:10:55;98371.59;;;8.07;100.00
29569;BME280;16501;51.462;14.346;2023-04-01T03:13:20;98341.56;;;7.85;100.00
29569;BME280;16501;51.462;14.346;2023-04-01T03:15:45;98361.69;;;8.00;100.00
29569;BME280;16501;51.462;14.346;2023-04-01T03:18:11;98340.31;;;7.86;100.00
29569;BME280;16501;51.462;14.346;2023-04-01T03:20:36;98350.00;;;7.96;100.00
29569;BME280;16501;51.462;14.346;2023-04-01T03:23:01;98380.25;;;8.09;100.00
29569;BME280;16501;51.462;14.346;2023-04-01T03:25:26;98379.47;;;8.08;100.00
29569;BME280;16501;51.462;14.346;2023-04-01T03:27:53;98354.78;;;7.90;100.00
29569;BME280;16501;51.462;14.346;2023-04-01T03:30:18;98366.28;;;8.03;100.00
29569;BME280;16501;51.462;14.346;2023-04-01T03:32:44;98349.22;;;7.90;100.00
29569;BME280;16501;51.462;14.346;2023-04-01T03:35:09;98365.22;;;7.95;100.00
29569;BME280;16501;51.462;14.346;2023-04-01T03:37:35;98360.88;;;7.88;100.00
29569;BME280;16501;51.462;14.346;2023-04-01T03:40:00;98345.09;;;7.80;100.00
29569;BME280;16501;51.462;14.346;2023-04-01T03:42:26;98401.56;;;8.06;100.00
29569;BME280;16501;51.462;14.346;2023-04-01T03:44:51;98367.22;;;7.89;100.00
29569;BME280;16501;51.462;14.346;2023-04-01T03:47:16;98370.22;;;7.80;100.00
29569;BME280;16501;51.462;14.346;2023-04-01T03:49:42;98349.38;;;7.69;100.00
29569;BME280;16501;51.462;14.346;2023-04-01T03:52:09;98395.19;;;8.00;100.00
29569;BME280;16501;51.462;14.346;2023-04-01T03:54:35;98398.47;;;8.04;100.00
29569;BME280;16501;51.462;14.346;2023-04-01T03:57:01;98375.88;;;7.91;100.00
29569;BME280;16501;51.462;14.346;2023-04-01T03:59:26;98386.25;;;7.90;100.00
29569;BME280;16501;51.462;14.346;2023-04-01T04:01:51;98397.44;;;7.96;100.00
29569;BME280;16501;51.462;14.346;2023-04-01T04:04:17;98372.53;;;7.87;100.00
29569;BME280;16501;51.462;14.346;2023-04-01T04:06:42;98390.34;;;8.01;100.00
29569;BME280;16501;51.462;14.346;2023-04-01T04:09:07;98378.84;;;7.82;100.00
29569;BME280;16501;51.462;14.346;2023-04-01T04:11:33;98416.25;;;8.01;100.00
29569;BME280;16501;51.462;14.346;2023-04-01T04:13:58;98373.25;;;7.82;100.00
29569;BME280;16501;51.462;14.346;2023-04-01T04:16:24;98356.25;;;7.74;100.00
29569;BME280;16501;51.462;14.346;2023-04-01T04:18:49;98395.66;;;7.93;100.00
29569;BME280;16501;51.462;14.346;2023-04-01T04:21:16;98367.66;;;7.76;100.00
29569;BME280;16501;51.462;14.346;2023-04-01T04:23:42;98391.31;;;7.86;100.00
29569;BME280;16501;51.462;14.346;2023-04-01T04:26:10;98412.66;;;7.95;100.00
29569;BME280;16501;51.462;14.346;2023-04-01T04:28:36;98381.56;;;7.65;100.00
29569;BME280;16501;51.462;14.346;2023-04-01T04:31:02;98415.22;;;7.99;100.00
29569;BME280;16501;51.462;14.346;2023-04-01T04:33:27;98373.22;;;7.70;100.00
29569;BME280;16501;51.462;14.346;2023-04-01T04:35:55;98389.97;;;7.70;100.00
29569;BME280;16501;51.462;14.346;2023-04-01T04:38:21;98410.84;;;7.92;100.00
29569;BME280;16501;51.462;14.346;2023-04-01T04:40:46;98387.38;;;7.61;100.00
29569;BME280;16501;51.462;14.346;2023-04-01T04:43:13;98431.47;;;8.00;100.00
29569;BME280;16501;51.462;14.346;2023-04-01T04:45:40;98431.94;;;7.99;100.00
29569;BME280;16501;51.462;14.346;2023-04-01T04:48:07;98368.03;;;7.52;100.00
29569;BME280;16501;51.462;14.346;2023-04-01T04:50:33;98433.50;;;8.00;100.00
29569;BME280;16501;51.462;14.346;2023-04-01T04:52:58;98435.00;;;8.01;100.00
29569;BME280;16501;51.462;14.346;2023-04-01T04:55:24;98423.31;;;7.97;100.00
29569;BME280;16501;51.462;14.346;2023-04-01T04:57:49;98432.72;;;7.99;100.00
29569;BME280;16501;51.462;14.346;2023-04-01T05:00:15;98421.53;;;7.99;100.00
29569;BME280;16501;51.462;14.346;2023-04-01T05:02:40;98415.44;;;7.89;100.00
29569;BME280;16501;51.462;14.346;2023-04-01T05:05:06;98386.19;;;7.73;100.00
29569;BME280;16501;51.462;14.346;2023-04-01T05:07:32;98426.63;;;7.95;100.00
29569;BME280;16501;51.462;14.346;2023-04-01T05:09:57;98412.13;;;7.91;100.00
29569;BME280;16501;51.462;14.346;2023-04-01T05:12:23;98448.25;;;8.11;100.00
29569;BME280;16501;51.462;14.346;2023-04-01T05:14:48;98420.03;;;7.98;100.00
29569;BME280;16501;51.462;14.346;2023-04-01T05:17:13;98427.41;;;8.01;100.00
29569;BME280;16501;51.462;14.346;2023-04-01T05:19:39;98428.94;;;8.02;100.00
29569;BME280;16501;51.462;14.346;2023-04-01T05:22:05;98447.78;;;8.19;100.00
29569;BME280;16501;51.462;14.346;2023-04-01T05:24:31;98429.16;;;7.99;100.00
29569;BME280;16501;51.462;14.346;2023-04-01T05:26:57;98413.66;;;7.92;100.00
29569;BME280;16501;51.462;14.346;2023-04-01T05:29:24;98459.97;;;8.16;100.00
29569;BME280;16501;51.462;14.346;2023-04-01T05:31:50;98446.97;;;8.07;100.00
29569;BME280;16501;51.462;14.346;2023-04-01T05:34:18;98440.34;;;8.04;100.00
29569;BME280;16501;51.462;14.346;2023-04-01T05:36:43;98457.94;;;8.22;100.00
29569;BME280;16501;51.462;14.346;2023-04-01T05:39:09;98445.25;;;8.15;100.00
29569;BME280;16501;51.462;14.346;2023-04-01T05:41:35;98459.72;;;8.25;100.00
29569;BME280;16501;51.462;14.346;2023-04-01T05:44:01;98434.28;;;8.06;100.00
29569;BME280;16501;51.462;14.346;2023-04-01T05:46:26;98479.03;;;8.23;100.00
29569;BME280;16501;51.462;14.346;2023-04-01T05:48:52;98465.03;;;8.17;100.00
29569;BME280;16501;51.462;14.346;2023-04-01T05:51:17;98424.78;;;7.86;100.00
29569;BME280;16501;51.462;14.346;2023-04-01T05:53:43;98440.59;;;8.01;100.00
29569;BME280;16501;51.462;14.346;2023-04-01T05:56:08;98449.75;;;8.07;100.00
29569;BME280;16501;51.462;14.346;2023-04-01T05:58:35;98470.41;;;8.26;100.00
29569;BME280;16501;51.462;14.346;2023-04-01T06:01:02;98443.59;;;7.91;100.00
29569;BME280;16501;51.462;14.346;2023-04-01T06:03:28;98478.75;;;8.21;100.00
29569;BME280;16501;51.462;14.346;2023-04-01T06:05:53;98477.00;;;8.23;100.00
29569;BME280;16501;51.462;14.346;2023-04-01T06:08:19;98439.06;;;8.00;100.00
29569;BME280;16501;51.462;14.346;2023-04-01T06:13:57;98483.38;;;8.29;100.00
29569;BME280;16501;51.462;14.346;2023-04-01T06:19:36;98466.28;;;8.16;100.00
29569;BME280;16501;51.462;14.346;2023-04-01T06:25:04;98472.63;;;8.17;100.00
29569;BME280;16501;51.462;14.346;2023-04-01T06:28:04;98495.56;;;8.32;100.00
29569;BME280;16501;51.462;14.346;2023-04-01T06:36:01;98507.56;;;8.44;100.00
29569;BME280;16501;51.462;14.346;2023-04-01T06:46:47;98508.88;;;8.48;100.00
29569;BME280;16501;51.462;14.346;2023-04-01T06:52:45;98506.84;;;8.49;100.00
29569;BME280;16501;51.462;14.346;2023-04-01T06:55:26;98523.88;;;8.57;100.00
29569;BME280;16501;51.462;14.346;2023-04-01T06:57:55;98510.88;;;8.48;100.00
29569;BME280;16501;51.462;14.346;2023-04-01T07:00:31;98529.25;;;8.66;100.00
29569;BME280;16501;51.462;14.346;2023-04-01T07:03:00;98522.38;;;8.67;100.00
29569;BME280;16501;51.462;14.346;2023-04-01T07:05:34;98524.69;;;8.74;100.00
29569;BME280;16501;51.462;14.346;2023-04-01T07:08:11;98509.16;;;8.62;100.00
29569;BME280;16501;51.462;14.346;2023-04-01T07:11:01;98547.34;;;8.76;100.00
29569;BME280;16501;51.462;14.346;2023-04-01T07:13:30;98519.41;;;8.76;100.00
29569;BME280;16501;51.462;14.346;2023-04-01T07:21:55;98509.22;;;8.79;100.00
29569;BME280;16501;51.462;14.346;2023-04-01T07:24:26;98532.16;;;9.00;100.00
29569;BME280;16501;51.462;14.346;2023-04-01T07:26:56;98493.97;;;8.74;100.00
29569;BME280;16501;51.462;14.346;2023-04-01T07:29:22;98528.91;;;9.13;100.00
29569;BME280;16501;51.462;14.346;2023-04-01T07:34:27;98533.22;;;9.19;100.00
29569;BME280;16501;51.462;14.346;2023-04-01T07:37:05;98538.31;;;9.27;100.00
29569;BME280;16501;51.462;14.346;2023-04-01T07:42:24;98536.28;;;9.33;100.00
29569;BME280;16501;51.462;14.346;2023-04-01T07:45:22;98521.78;;;9.29;100.00
29569;BME280;16501;51.462;14.346;2023-04-01T07:50:41;98514.66;;;9.28;100.00
29569;BME280;16501;51.462;14.346;2023-04-01T07:59:23;98515.69;;;9.36;100.00
29569;BME280;16501;51.462;14.346;2023-04-01T08:02:23;98520.00;;;9.37;100.00
29569;BME280;16501;51.462;14.346;2023-04-01T08:05:04;98527.91;;;9.44;100.00
29569;BME280;16501;51.462;14.346;2023-04-01T08:07:53;98555.13;;;9.60;100.00
29569;BME280;16501;51.462;14.346;2023-04-01T08:10:36;98551.56;;;9.66;100.00
29569;BME280;16501;51.462;14.346;2023-04-01T08:16:15;98559.97;;;9.71;100.00
29569;BME280;16501;51.462;14.346;2023-04-01T08:18:45;98565.56;;;9.82;100.00
29569;BME280;16501;51.462;14.346;2023-04-01T08:21:18;98534.25;;;9.56;100.00
29569;BME280;16501;51.462;14.346;2023-04-01T08:23:51;98572.94;;;9.91;100.00
29569;BME280;16501;51.462;14.346;2023-04-01T08:26:28;98529.44;;;9.62;100.00
29569;BME280;16501;51.462;14.346;2023-04-01T08:29:02;98551.31;;;9.69;100.00
29569;BME280;16501;51.462;14.346;2023-04-01T08:31:58;98570.91;;;9.75;100.00
29569;BME280;16501;51.462;14.346;2023-04-01T08:34:30;98491.00;;;9.17;100.00
29569;BME280;16501;51.462;14.346;2023-04-01T08:37:03;98570.38;;;9.59;100.00
29569;BME280;16501;51.462;14.346;2023-04-01T08:39:34;98570.41;;;9.71;100.00
29569;BME280;16501;51.462;14.346;2023-04-01T08:45:22;98572.69;;;9.78;100.00
29569;BME280;16501;51.462;14.346;2023-04-01T08:51:26;98575.50;;;9.89;100.00
29569;BME280;16501;51.462;14.346;2023-04-01T08:59:24;98541.91;;;9.89;100.00
29569;BME280;16501;51.462;14.346;2023-04-01T09:02:11;98576.25;;;10.12;100.00
29569;BME280;16501;51.462;14.346;2023-04-01T09:05:16;98578.53;;;10.19;100.00
29569;BME280;16501;51.462;14.346;2023-04-01T09:10:55;98582.09;;;10.09;100.00
29569;BME280;16501;51.462;14.346;2023-04-01T09:13:50;98559.94;;;9.99;100.00
29569;BME280;16501;51.462;14.346;2023-04-01T09:30:31;98601.44;;;10.18;100.00
29569;BME280;16501;51.462;14.346;2023-04-01T09:41:51;98587.44;;;10.18;100.00
29569;BME280;16501;51.462;14.346;2023-04-01T09:44:24;98599.13;;;10.39;100.00
29569;BME280;16501;51.462;14.346;2023-04-01T09:47:01;98571.66;;;10.21;100.00
29569;BME280;16501;51.462;14.346;2023-04-01T09:54:59;98614.16;;;10.53;100.00
29569;BME280;16501;51.462;14.346;2023-04-01T09:57:52;98614.41;;;10.49;100.00
29569;BME280;16501;51.462;14.346;2023-04-01T10:00:48;98616.47;;;10.37;100.00
29569;BME280;16501;51.462;14.346;2023-04-01T10:03:30;98611.13;;;10.34;100.00
29569;BME280;16501;51.462;14.346;2023-04-01T10:06:13;98623.88;;;10.35;100.00
29569;BME280;16501;51.462;14.346;2023-04-01T10:14:46;98613.66;;;10.49;100.00
29569;BME280;16501;51.462;14.346;2023-04-01T10:20:25;98615.63;;;10.71;100.00
29569;BME280;16501;51.462;14.346;2023-04-01T10:23:09;98616.81;;;10.98;100.00
29569;BME280;16501;51.462;14.346;2023-04-01T10:35:01;98622.44;;;11.45;100.00
29569;BME280;16501;51.462;14.346;2023-04-01T10:40:37;98618.28;;;11.58;100.00
29569;BME280;16501;51.462;14.346;2023-04-01T10:43:50;98618.78;;;11.56;100.00
29569;BME280;16501;51.462;14.346;2023-04-01T10:49:41;98622.13;;;11.55;100.00
29569;BME280;16501;51.462;14.346;2023-04-01T10:52:24;98628.34;;;11.42;100.00
29569;BME280;16501;51.462;14.346;2023-04-01T10:55:06;98623.78;;;11.33;100.00
29569;BME280;16501;51.462;14.346;2023-04-01T11:01:07;98623.91;;;11.10;100.00
29569;BME280;16501;51.462;14.346;2023-04-01T11:07:09;98626.78;;;10.88;100.00
29569;BME280;16501;51.462;14.346;2023-04-01T11:12:57;98629.84;;;10.90;100.00
29569;BME280;16501;51.462;14.346;2023-04-01T11:18:21;98623.13;;;11.10;100.00
29569;BME280;16501;51.462;14.346;2023-04-01T11:21:21;98634.81;;;11.20;100.00
29569;BME280;16501;51.462;14.346;2023-04-01T11:29:59;98638.16;;;11.12;100.00
29569;BME280;16501;51.462;14.346;2023-04-01T11:32:46;98640.75;;;11.05;100.00
29569;BME280;16501;51.462;14.346;2023-04-01T11:38:22;98639.72;;;11.02;100.00
29569;BME280;16501;51.462;14.346;2023-04-01T11:41:19;98642.03;;;11.09;100.00
29569;BME280;16501;51.462;14.346;2023-04-01T11:44:16;98636.94;;;11.08;100.00
29569;BME280;16501;51.462;14.346;2023-04-01T11:49:33;98645.25;;;11.25;100.00
29569;BME280;16501;51.462;14.346;2023-04-01T11:52:14;98643.44;;;11.33;100.00
29569;BME280;16501;51.462;14.346;2023-04-01T11:55:05;98641.38;;;11.39;99.88
29569;BME280;16501;51.462;14.346;2023-04-01T12:05:51;98658.25;;;11.75;98.40
29569;BME280;16501;51.462;14.346;2023-04-01T12:11:28;98650.56;;;12.48;95.56
29569;BME280;16501;51.462;14.346;2023-04-01T12:17:23;98647.16;;;12.55;93.84
29569;BME280;16501;51.462;14.346;2023-04-01T12:19:53;98643.13;;;12.50;92.20
29569;BME280;16501;51.462;14.346;2023-04-01T12:22:28;98645.09;;;12.80;92.71
29569;BME280;16501;51.462;14.346;2023-04-01T12:25:16;98647.50;;;12.95;90.82
29569;BME280;16501;51.462;14.346;2023-04-01T12:30:42;98635.25;;;12.68;92.64
29569;BME280;16501;51.462;14.346;2023-04-01T12:33:40;98640.91;;;12.92;93.77
29569;BME280;16501;51.462;14.346;2023-04-01T12:36:16;98647.25;;;13.17;90.68
29569;BME280;16501;51.462;14.346;2023-04-01T12:39:13;98614.00;;;13.16;90.80
29569;BME280;16501;51.462;14.346;2023-04-01T12:44:52;98649.94;;;13.67;89.85
29569;BME280;16501;51.462;14.346;2023-04-01T12:47:37;98629.56;;;13.61;89.34
29569;BME280;16501;51.462;14.346;2023-04-01T12:50:19;98628.56;;;13.58;86.80
29569;BME280;16501;51.462;14.346;2023-04-01T12:53:11;98646.50;;;13.74;86.24
29569;BME280;16501;51.462;14.346;2023-04-01T12:55:41;98652.13;;;13.74;85.33
29569;BME280;16501;51.462;14.346;2023-04-01T12:58:23;98646.03;;;13.89;86.38
29569;BME280;16501;51.462;14.346;2023-04-01T13:09:45;98636.78;;;12.93;84.97
29569;BME280;16501;51.462;14.346;2023-04-01T13:17:48;98653.78;;;13.07;85.86
29569;BME280;16501;51.462;14.346;2023-04-01T13:28:42;98670.97;;;13.66;83.64
29569;BME280;16501;51.462;14.346;2023-04-01T13:34:13;98658.38;;;13.67;84.64
29569;BME280;16501;51.462;14.346;2023-04-01T13:40:02;98684.72;;;13.88;83.95
29569;BME280;16501;51.462;14.346;2023-04-01T13:42:48;98673.91;;;13.54;84.41
29569;BME280;16501;51.462;14.346;2023-04-01T13:45:23;98658.09;;;13.32;86.18
29569;BME280;16501;51.462;14.346;2023-04-01T13:51:07;98679.31;;;13.33;79.14
29569;BME280;16501;51.462;14.346;2023-04-01T13:54:03;98686.69;;;13.36;78.82
29569;BME280;16501;51.462;14.346;2023-04-01T13:59:50;98695.38;;;13.38;81.97
29569;BME280;16501;51.462;14.346;2023-04-01T14:03:14;98672.19;;;13.32;81.74
29569;BME280;16501;51.462;14.346;2023-04-01T14:06:16;98691.81;;;13.38;81.90
29569;BME280;16501;51.462;14.346;2023-04-01T14:08:55;98694.41;;;13.30;82.10
29569;BME280;16501;51.462;14.346;2023-04-01T14:17:01;98703.13;;;13.08;82.90
29569;BME280;16501;51.462;14.346;2023-04-01T14:28:42;98699.44;;;12.94;86.61
29569;BME280;16501;51.462;14.346;2023-04-01T14:36:53;98713.97;;;12.73;87.17
29569;BME280;16501;51.462;14.346;2023-04-01T14:45:02;98706.50;;;12.51;88.73
29569;BME280;16501;51.462;14.346;2023-04-01T14:47:58;98706.97;;;12.55;88.32
29569;BME280;16501;51.462;14.346;2023-04-01T14:50:25;98704.16;;;12.55;88.18
29569;BME280;16501;51.462;14.346;2023-04-01T14:55:36;98682.28;;;12.42;88.19
29569;BME280;16501;51.462;14.346;2023-04-01T14:58:14;98707.63;;;12.67;87.81
29569;BME280;16501;51.462;14.346;2023-04-01T15:01:00;98687.28;;;12.55;88.94
29569;BME280;16501;51.462;14.346;2023-04-01T15:09:16;98692.44;;;12.51;87.26
29569;BME280;16501;51.462;14.346;2023-04-01T15:12:03;98735.22;;;12.69;87.91
29569;BME280;16501;51.462;14.346;2023-04-01T15:17:58;98727.94;;;12.54;89.60
29569;BME280;16501;51.462;14.346;2023-04-01T15:24:06;98729.69;;;12.57;89.79
29569;BME280;16501;51.462;14.346;2023-04-01T15:26:58;98734.59;;;12.51;90.17
29569;BME280;16501;51.462;14.346;2023-04-01T15:29:37;98734.59;;;12.51;90.00
29569;BME280;16501;51.462;14.346;2023-04-01T15:32:41;98748.91;;;12.53;90.94
29569;BME280;16501;51.462;14.346;2023-04-01T15:35:28;98733.22;;;12.33;87.94
29569;BME280;16501;51.462;14.346;2023-04-01T15:38:33;98746.53;;;12.27;87.01
29569;BME280;16501;51.462;14.346;2023-04-01T15:43:41;98720.47;;;11.85;87.96
29569;BME280;16501;51.462;14.346;2023-04-01T15:46:36;98758.38;;;12.14;88.50
29569;BME280;16501;51.462;14.346;2023-04-01T15:49:43;98767.09;;;12.11;87.43
29569;BME280;16501;51.462;14.346;2023-04-01T15:52:23;98741.88;;;11.99;87.43
29569;BME280;16501;51.462;14.346;2023-04-01T15:57:56;98764.09;;;11.97;87.52
29569;BME280;16501;51.462;14.346;2023-04-01T16:03:18;98787.25;;;12.15;90.12
29569;BME280;16501;51.462;14.346;2023-04-01T16:06:01;98760.81;;;11.93;89.68
29569;BME280;16501;51.462;14.346;2023-04-01T16:11:57;98792.16;;;12.03;90.92
29569;BME280;16501;51.462;14.346;2023-04-01T16:14:39;98759.09;;;11.73;91.01
29569;BME280;16501;51.462;14.346;2023-04-01T16:19:51;98798.09;;;11.82;92.82
29569;BME280;16501;51.462;14.346;2023-04-01T16:22:27;98803.97;;;11.84;93.57
29569;BME280;16501;51.462;14.346;2023-04-01T16:25:07;98803.22;;;11.78;95.15
29569;BME280;16501;51.462;14.346;2023-04-01T16:30:47;98812.19;;;11.71;97.23
29569;BME280;16501;51.462;14.346;2023-04-01T16:33:20;98781.88;;;11.52;98.02
29569;BME280;16501;51.462;14.346;2023-04-01T16:35:58;98813.47;;;11.76;98.93
29569;BME280;16501;51.462;14.346;2023-04-01T16:41:32;98791.06;;;11.59;100.00
29569;BME280;16501;51.462;14.346;2023-04-01T16:44:26;98840.00;;;11.75;100.00
29569;BME280;16501;51.462;14.346;2023-04-01T16:49:27;98776.66;;;11.04;100.00
29569;BME280;16501;51.462;14.346;2023-04-01T16:52:04;98815.13;;;11.14;100.00
29569;BME280;16501;51.462;14.346;2023-04-01T16:54:40;98832.97;;;11.28;100.00
29569;BME280;16501;51.462;14.346;2023-04-01T16:59:53;98852.13;;;11.07;100.00
29569;BME280;16501;51.462;14.346;2023-04-01T17:02:25;98871.00;;;11.01;100.00
29569;BME280;16501;51.462;14.346;2023-04-01T17:05:14;98855.44;;;10.94;100.00
29569;BME280;16501;51.462;14.346;2023-04-01T17:10:44;98869.47;;;11.00;100.00
29569;BME280;16501;51.462;14.346;2023-04-01T17:19:10;98886.28;;;10.89;100.00
29569;BME280;16501;51.462;14.346;2023-04-01T17:21:53;98893.16;;;10.93;100.00
29569;BME280;16501;51.462;14.346;2023-04-01T17:27:35;98889.06;;;10.83;100.00
29569;BME280;16501;51.462;14.346;2023-04-01T17:32:50;98900.06;;;10.87;100.00
29569;BME280;16501;51.462;14.346;2023-04-01T17:35:54;98908.22;;;10.96;100.00
29569;BME280;16501;51.462;14.346;2023-04-01T17:41:30;98893.66;;;10.69;100.00
29569;BME280;16501;51.462;14.346;2023-04-01T17:44:29;98917.38;;;10.80;100.00
29569;BME280;16501;51.462;14.346;2023-04-01T17:49:57;98921.41;;;10.67;100.00
29569;BME280;16501;51.462;14.346;2023-04-01T17:52:44;98921.91;;;10.60;100.00
29569;BME280;16501;51.462;14.346;2023-04-01T17:58:19;98926.50;;;10.52;100.00
29569;BME280;16501;51.462;14.346;2023-04-01T18:04:07;98931.06;;;10.44;100.00
29569;BME280;16501;51.462;14.346;2023-04-01T18:09:40;98949.94;;;10.49;100.00
29569;BME280;16501;51.462;14.346;2023-04-01T18:15:16;98958.81;;;10.42;100.00
29569;BME280;16501;51.462;14.346;2023-04-01T18:18:00;98946.81;;;10.35;100.00
29569;BME280;16501;51.462;14.346;2023-04-01T18:20:51;98967.22;;;10.42;100.00
29569;BME280;16501;51.462;14.346;2023-04-01T18:23:43;98967.22;;;10.42;100.00
29569;BME280;16501;51.462;14.346;2023-04-01T18:26:22;98974.59;;;10.39;100.00
29569;BME280;16501;51.462;14.346;2023-04-01T18:35:14;98971.91;;;10.13;100.00
29569;BME280;16501;51.462;14.346;2023-04-01T18:38:06;98960.34;;;9.99;100.00
29569;BME280;16501;51.462;14.346;2023-04-01T18:40:50;98977.34;;;9.85;100.00